Time;durP1;ratioP1;P1;durP2;ratioP2;P2;SDS_P1;SDS_P2;PMS_P1;PMS_P2;Temp;Humidity;BMP_temperature;BMP_pressure;BME280_temperature;BME280_humidity;BME280_pressure;Samples;Min_cycle;Max_cycle;Signal;HPM_P1;HPM_P2
2022/06/04 00:01:35;;;;;;;6.47;3.33;;;;;;;14.59;100.00;102027.72;10230625;28;20095;-64
2022/06/04 00:06:32;;;;;;;7.65;3.33;;;;;;;14.49;100.00;102029.56;10228790;28;20106;-65
2022/06/04 00:16:44;;;;;;;6.38;3.55;;;;;;;14.37;100.00;102032.06;10226099;28;20050;-65
2022/06/04 00:21:41;;;;;;;6.32;3.55;;;;;;;14.37;100.00;102032.06;10223040;28;20053;-64
2022/06/04 00:26:38;;;;;;;10.45;4.43;;;;;;;14.28;100.00;102033.94;10220285;28;20464;-64
2022/06/04 00:31:36;;;;;;;7.57;3.70;;;;;;;14.24;100.00;102041.19;10212618;28;20041;-64
2022/06/04 00:36:33;;;;;;;5.55;3.90;;;;;;;14.16;100.00;102033.69;10211154;28;20410;-64
2022/06/04 00:41:40;;;;;;;6.57;3.85;;;;;;;14.15;100.00;102026.53;10223265;28;20722;-64
2022/06/04 00:46:39;;;;;;;10.80;4.13;;;;;;;14.01;100.00;102035.63;10218686;28;20054;-65
2022/06/04 00:51:36;;;;;;;8.68;4.00;;;;;;;13.81;100.00;102042.41;10222972;28;20080;-65
2022/06/04 00:56:33;;;;;;;7.78;4.00;;;;;;;13.84;100.00;102046.47;10210774;28;20033;-65
2022/06/04 01:01:43;;;;;;;8.07;4.43;;;;;;;13.83;100.00;102044.81;10227843;28;20061;-65
2022/06/04 01:06:58;;;;;;;7.95;4.72;;;;;;;13.61;100.00;102042.81;10216956;28;20237;-64
2022/06/04 01:12:10;;;;;;;9.68;4.30;;;;;;;13.58;100.00;102027.75;10220390;28;20136;-65
2022/06/04 01:17:17;;;;;;;8.23;4.70;;;;;;;13.50;100.00;102035.91;10213193;28;20497;-65
2022/06/04 01:22:37;;;;;;;7.15;4.50;;;;;;;13.41;100.00;102038.53;10225858;28;20118;-65
2022/06/04 01:27:43;;;;;;;7.50;4.43;;;;;;;13.37;100.00;102027.38;10207989;28;20456;-65
2022/06/04 01:32:53;;;;;;;9.15;4.60;;;;;;;13.34;100.00;102027.94;10222453;28;20068;-65
2022/06/04 01:37:56;;;;;;;6.63;4.00;;;;;;;13.23;100.00;102032.81;10222314;28;20115;-65
2022/06/04 01:42:56;;;;;;;12.18;5.38;;;;;;;13.21;100.00;102029.56;10226601;28;20096;-65
2022/06/04 01:47:56;;;;;;;9.40;4.95;;;;;;;13.13;100.00;102033.00;10218734;28;20164;-64
2022/06/04 01:52:54;;;;;;;9.70;5.18;;;;;;;13.09;100.00;102029.25;10217436;28;20500;-65
2022/06/04 01:58:02;;;;;;;9.35;5.15;;;;;;;13.07;100.00;102028.72;10221968;28;20081;-64
2022/06/04 02:03:07;;;;;;;9.35;4.97;;;;;;;12.96;100.00;102019.03;10216032;28;20037;-65
2022/06/04 02:08:08;;;;;;;9.05;4.75;;;;;;;12.95;100.00;102022.88;10217588;28;20099;-65
2022/06/04 02:13:09;;;;;;;8.15;5.20;;;;;;;12.90;100.00;102028.47;10220013;28;20390;-65
2022/06/04 02:18:09;;;;;;;10.68;4.82;;;;;;;12.80;100.00;102026.72;10214358;28;20355;-65
2022/06/04 02:23:06;;;;;;;9.05;5.57;;;;;;;12.62;100.00;102026.50;10225826;28;20448;-65
2022/06/04 02:28:06;;;;;;;9.75;6.00;;;;;;;12.60;100.00;102036.09;10222841;28;20119;-65
2022/06/04 02:33:27;;;;;;;9.27;6.30;;;;;;;12.54;100.00;102026.34;10222012;28;20091;-65
2022/06/04 02:38:43;;;;;;;11.18;7.22;;;;;;;12.48;100.00;102019.31;10217665;28;20164;-65
2022/06/04 02:43:45;;;;;;;10.75;6.70;;;;;;;12.39;100.00;102025.47;10207568;28;20573;-64
2022/06/04 02:48:49;;;;;;;12.10;7.47;;;;;;;12.32;100.00;102030.53;10224536;28;20045;-65
2022/06/04 02:53:47;;;;;;;13.82;7.85;;;;;;;12.29;100.00;102025.63;10227800;28;20041;-64
2022/06/04 02:58:49;;;;;;;16.48;9.18;;;;;;;12.22;100.00;102036.16;10234471;28;20068;-65
2022/06/04 03:03:45;;;;;;;12.10;7.65;;;;;;;12.10;100.00;102046.75;10228023;28;20487;-65
2022/06/04 03:08:42;;;;;;;15.43;8.57;;;;;;;12.17;100.00;102041.72;10229988;28;20153;-64
2022/06/04 03:13:39;;;;;;;15.52;8.85;;;;;;;12.18;100.00;102046.06;10230556;28;20044;-65
2022/06/04 03:18:36;;;;;;;12.23;8.38;;;;;;;12.16;100.00;102053.78;10229027;28;20065;-65
2022/06/04 03:23:32;;;;;;;14.50;8.45;;;;;;;12.12;100.00;102052.75;10222418;28;20072;-65
2022/06/04 03:28:29;;;;;;;15.23;8.95;;;;;;;12.10;100.00;102061.28;10221546;28;20045;-64
2022/06/04 03:33:26;;;;;;;14.98;9.00;;;;;;;12.05;100.00;102066.03;10219138;28;20505;-65
2022/06/04 03:38:22;;;;;;;15.52;9.48;;;;;;;12.03;100.00;102070.97;10226443;28;20049;-64
2022/06/04 03:43:18;;;;;;;12.77;9.02;;;;;;;11.92;100.00;102082.06;10227160;28;20671;-65
2022/06/04 03:48:15;;;;;;;12.70;8.32;;;;;;;11.99;100.00;102088.00;10216337;28;20049;-65
2022/06/04 03:53:11;;;;;;;17.17;10.10;;;;;;;11.91;100.00;102080.44;10229835;28;20076;-64
2022/06/04 03:58:09;;;;;;;16.27;9.18;;;;;;;11.88;100.00;102086.50;10226690;28;20077;-66
2022/06/04 04:03:11;;;;;;;15.70;10.80;;;;;;;11.83;100.00;102099.41;10226349;28;20081;-66
2022/06/04 04:08:09;;;;;;;16.67;9.98;;;;;;;11.89;100.00;102104.59;10225120;28;20133;-64
2022/06/04 04:13:06;;;;;;;19.80;10.38;;;;;;;11.97;100.00;102106.69;10217997;28;20076;-66
2022/06/04 04:18:05;;;;;;;17.00;10.60;;;;;;;11.92;100.00;102103.97;10214857;28;20096;-66
2022/06/04 04:23:05;;;;;;;15.40;10.32;;;;;;;12.06;100.00;102106.00;10217947;28;20045;-65
2022/06/04 04:28:03;;;;;;;21.80;9.93;;;;;;;12.11;100.00;102101.28;10211787;28;20076;-66
2022/06/04 04:33:01;;;;;;;14.80;10.05;;;;;;;12.15;100.00;102085.88;10212527;28;20049;-66
2022/06/04 04:37:58;;;;;;;19.90;11.07;;;;;;;12.16;100.00;102081.19;10223626;28;20401;-65
2022/06/04 04:42:54;;;;;;;17.38;10.73;;;;;;;12.18;100.00;102068.00;10212850;28;20037;-66
2022/06/04 04:47:52;;;;;;;21.10;11.98;;;;;;;12.22;100.00;102082.75;10217119;28;20509;-66
2022/06/04 04:52:50;;;;;;;14.80;10.73;;;;;;;12.23;100.00;102076.19;10217032;28;20046;-66
2022/06/04 04:57:46;;;;;;;17.40;11.45;;;;;;;12.28;100.00;102084.34;10212844;28;20679;-66
2022/06/04 05:02:43;;;;;;;21.45;11.32;;;;;;;12.16;100.00;102075.72;10227462;28;20042;-66
2022/06/04 05:07:41;;;;;;;18.77;12.07;;;;;;;12.14;100.00;102083.44;10224923;28;20080;-66
2022/06/04 05:12:38;;;;;;;17.55;11.15;;;;;;;12.09;100.00;102086.22;10206471;28;20073;-65
2022/06/04 05:17:34;;;;;;;16.33;11.02;;;;;;;12.13;100.00;102081.78;10219680;28;20068;-66
2022/06/04 05:22:31;;;;;;;15.27;10.68;;;;;;;12.15;100.00;102079.56;10219032;28;20073;-66
2022/06/04 05:27:27;;;;;;;14.80;9.20;;;;;;;12.25;100.00;102073.94;10223673;28;20505;-66
2022/06/04 05:32:24;;;;;;;17.17;10.65;;;;;;;12.36;100.00;102080.91;10220894;28;20133;-66
2022/06/04 05:37:20;;;;;;;19.55;12.32;;;;;;;12.27;100.00;102082.69;10228466;28;20111;-66
2022/06/04 05:42:16;;;;;;;16.48;10.50;;;;;;;12.45;100.00;102077.50;10224786;28;20103;-66
2022/06/04 05:47:13;;;;;;;16.38;10.02;;;;;;;12.51;100.00;102087.28;10219069;28;20497;-66
2022/06/04 05:52:09;;;;;;;17.98;9.85;;;;;;;12.62;100.00;102083.28;10215660;28;20073;-66
2022/06/04 05:57:06;;;;;;;19.40;9.02;;;;;;;12.70;100.00;102093.59;10222352;28;20188;-66
2022/06/04 06:02:03;;;;;;;14.55;7.95;;;;;;;12.83;100.00;102090.09;10224543;28;20128;-64
2022/06/04 06:07:00;;;;;;;17.83;9.23;;;;;;;12.98;100.00;102096.44;10222073;28;20052;-65
2022/06/04 06:11:56;;;;;;;12.40;8.55;;;;;;;13.01;100.00;102091.13;10212569;28;20046;-64
2022/06/04 06:16:53;;;;;;;17.50;8.82;;;;;;;13.05;100.00;102096.84;10219229;28;20477;-64
2022/06/04 06:21:50;;;;;;;14.60;7.90;;;;;;;13.11;100.00;102090.16;10223014;28;20693;-64
2022/06/04 06:26:53;;;;;;;15.60;7.97;;;;;;;13.20;100.00;102099.31;10233063;28;20095;-64
2022/06/04 06:31:50;;;;;;;14.00;8.05;;;;;;;13.32;100.00;102106.28;10232617;28;20505;-64
2022/06/04 06:36:47;;;;;;;12.13;6.70;;;;;;;13.40;100.00;102098.16;10227715;28;20092;-64
2022/06/04 06:41:44;;;;;;;15.05;7.45;;;;;;;13.62;100.00;102110.41;10230107;28;20077;-64
2022/06/04 06:46:44;;;;;;;12.18;6.60;;;;;;;13.68;100.00;102110.00;10228163;28;20064;-64
2022/06/04 06:51:50;;;;;;;12.32;6.03;;;;;;;13.85;100.00;102114.91;10229792;28;20698;-64
2022/06/04 06:56:49;;;;;;;10.70;7.18;;;;;;;13.96;100.00;102120.19;10216541;28;21027;-65
2022/06/04 07:01:46;;;;;;;13.27;7.85;;;;;;;14.14;100.00;102126.69;10227134;28;20045;-65
2022/06/04 07:06:47;;;;;;;12.15;6.93;;;;;;;14.14;100.00;102127.50;10225545;28;20053;-65
2022/06/04 07:11:44;;;;;;;16.70;8.13;;;;;;;14.21;100.00;102149.09;10218793;28;20041;-64
2022/06/04 07:16:42;;;;;;;15.00;8.10;;;;;;;14.30;100.00;102147.25;10227327;28;20046;-65
2022/06/04 07:21:39;;;;;;;10.55;6.28;;;;;;;14.38;100.00;102141.00;10231215;28;20045;-65
2022/06/04 07:26:36;;;;;;;12.30;6.95;;;;;;;14.53;100.00;102135.16;10220195;28;20081;-65
2022/06/04 07:31:32;;;;;;;12.52;6.68;;;;;;;14.70;100.00;102133.72;10223579;28;20041;-65
2022/06/04 07:36:32;;;;;;;10.30;6.00;;;;;;;14.79;100.00;102139.28;10222864;28;20045;-65
2022/06/04 07:41:32;;;;;;;11.00;5.85;;;;;;;15.03;100.00;102152.75;10225005;28;20505;-66
2022/06/04 07:46:30;;;;;;;14.57;6.47;;;;;;;15.15;100.00;102155.75;10222024;28;20069;-65
2022/06/04 07:51:28;;;;;;;11.52;6.55;;;;;;;15.22;100.00;102158.88;10231253;28;20417;-65
2022/06/04 07:56:25;;;;;;;7.70;5.53;;;;;;;15.35;100.00;102160.75;10218144;28;20130;-65
2022/06/04 08:01:23;;;;;;;8.45;5.13;;;;;;;15.46;100.00;102154.97;10228973;28;20548;-65
2022/06/04 08:06:21;;;;;;;9.85;5.03;;;;;;;15.64;100.00;102153.94;10228816;28;20096;-65
2022/06/04 08:11:30;;;;;;;9.32;4.50;;;;;;;15.81;100.00;102155.16;10227349;28;20061;-66
2022/06/04 08:16:27;;;;;;;10.43;4.65;;;;;;;15.92;100.00;102146.28;10229213;28;20098;-66
2022/06/04 08:21:24;;;;;;;11.35;5.25;;;;;;;16.04;100.00;102153.16;10219335;28;20046;-65
2022/06/04 08:26:20;;;;;;;8.75;4.72;;;;;;;16.10;100.00;102158.16;10229022;28;20080;-65
2022/06/04 08:31:16;;;;;;;11.13;7.88;;;;;;;16.23;100.00;102161.16;10223280;28;20482;-65
2022/06/04 08:36:16;;;;;;;9.50;5.18;;;;;;;16.33;100.00;102160.81;10229003;28;20049;-66
2022/06/04 08:41:22;;;;;;;8.25;4.78;;;;;;;16.40;100.00;102163.91;10226310;28;20053;-65
2022/06/04 08:46:21;;;;;;;9.27;5.05;;;;;;;16.48;100.00;102165.91;10225752;28;20480;-66
2022/06/04 08:51:22;;;;;;;12.20;4.97;;;;;;;16.63;100.00;102165.41;10230445;28;20049;-66
2022/06/04 09:01:53;;;;;;;22.17;14.13;;;;;;;16.79;100.00;102167.72;10216556;28;20041;-66
2022/06/04 09:07:02;;;;;;;7.15;3.53;;;;;;;16.94;100.00;102164.47;10221851;28;20049;-65
2022/06/04 09:12:02;;;;;;;23.02;14.05;;;;;;;17.16;100.00;102159.91;10219963;28;20528;-66
2022/06/04 09:17:03;;;;;;;8.57;4.55;;;;;;;17.27;100.00;102154.81;10221182;28;20140;-66
2022/06/04 09:22:01;;;;;;;8.25;4.97;;;;;;;17.44;100.00;102161.13;10225468;28;20501;-65
2022/06/04 09:27:18;;;;;;;7.63;4.25;;;;;;;17.46;100.00;102172.66;10227265;28;20045;-65
2022/06/04 09:32:47;;;;;;;8.35;4.15;;;;;;;17.49;100.00;102162.91;10221499;28;20041;-66
2022/06/04 09:37:47;;;;;;;7.22;4.00;;;;;;;17.62;100.00;102166.63;10209588;28;20073;-66
2022/06/04 09:42:44;;;;;;;8.98;3.58;;;;;;;17.77;100.00;102162.47;10220097;28;20575;-65
2022/06/04 09:48:01;;;;;;;8.50;4.85;;;;;;;17.99;100.00;102164.22;10215396;28;20419;-66
2022/06/04 09:53:16;;;;;;;10.05;5.43;;;;;;;18.18;100.00;102161.81;10214834;28;20571;-66
2022/06/04 09:58:26;;;;;;;11.45;7.32;;;;;;;18.34;98.88;102164.03;10221104;28;20053;-66
2022/06/04 10:03:23;;;;;;;11.98;5.20;;;;;;;18.55;100.00;102175.91;10210991;28;20124;-66
2022/06/04 10:08:22;;;;;;;5.13;2.90;;;;;;;18.83;98.76;102175.41;10211552;28;20050;-66
2022/06/04 10:18:38;;;;;;;7.82;2.80;;;;;;;21.70;90.34;102178.88;10222260;28;20083;-66
2022/06/04 10:23:47;;;;;;;5.90;2.13;;;;;;;22.72;83.38;102184.47;10221715;28;20493;-66
2022/06/04 10:28:52;;;;;;;4.10;2.42;;;;;;;23.45;76.00;102170.78;10218589;28;20072;-66
2022/06/04 10:34:07;;;;;;;5.63;3.25;;;;;;;24.89;71.45;102160.56;10221093;28;20563;-66
2022/06/04 10:39:37;;;;;;;4.75;2.45;;;;;;;25.48;57.20;102154.41;10225681;28;20052;-66
2022/06/04 10:44:45;;;;;;;3.88;2.20;;;;;;;25.78;55.53;102152.28;10216095;28;20466;-66
2022/06/04 10:50:00;;;;;;;5.22;2.40;;;;;;;26.46;57.53;102149.13;10216950;28;20076;-66
2022/06/04 10:55:18;;;;;;;11.82;8.40;;;;;;;26.44;51.97;102155.13;10221591;28;20129;-66
2022/06/04 11:00:24;;;;;;;11.23;6.68;;;;;;;26.79;52.75;102153.69;10214614;28;20485;-66
2022/06/04 11:05:24;;;;;;;5.10;2.92;;;;;;;26.60;46.64;102157.63;10223151;28;20456;-66
2022/06/04 11:10:43;;;;;;;6.43;2.53;;;;;;;27.24;48.55;102159.06;10223325;28;20625;-66
2022/06/04 11:16:21;;;;;;;6.40;4.28;;;;;;;27.82;47.53;102152.25;10225420;28;20055;-66
2022/06/04 11:21:26;;;;;;;5.13;2.40;;;;;;;28.03;47.42;102145.03;10220233;28;20501;-66
2022/06/04 11:27:01;;;;;;;5.40;2.60;;;;;;;28.24;45.73;102150.59;10230967;28;20069;-66
2022/06/04 11:32:03;;;;;;;5.53;2.30;;;;;;;27.88;44.00;102150.66;10216823;28;20046;-66
2022/06/04 11:37:31;;;;;;;5.18;2.35;;;;;;;27.69;48.48;102148.25;10233446;28;20096;-66
2022/06/04 11:43:09;;;;;;;4.90;2.33;;;;;;;27.58;45.60;102141.84;10229796;28;20444;-65
2022/06/04 11:48:27;;;;;;;29.95;22.15;;;;;;;26.78;41.82;102140.88;10226388;28;20053;-66
2022/06/04 11:53:47;;;;;;;6.40;4.38;;;;;;;26.35;44.38;102134.25;10219817;28;20104;-66
2022/06/04 11:59:11;;;;;;;15.85;12.98;;;;;;;25.27;43.99;102133.41;10218449;28;20084;-66
2022/06/04 12:04:14;;;;;;;4.97;3.20;;;;;;;25.55;42.48;102144.09;10223903;28;20129;-65
2022/06/04 12:09:26;;;;;;;8.85;5.13;;;;;;;26.92;47.48;102137.31;10221147;28;20493;-66
2022/06/04 12:14:50;;;;;;;5.57;2.40;;;;;;;26.85;48.39;102129.69;10217815;28;20056;-66
2022/06/04 12:25:15;;;;;;;4.82;1.88;;;;;;;25.81;46.04;102129.09;10214944;28;20115;-66
2022/06/04 12:30:28;;;;;;;5.23;1.90;;;;;;;25.68;53.58;102124.97;10209146;28;20045;-66
2022/06/04 12:35:25;;;;;;;5.78;2.80;;;;;;;24.85;54.77;102112.16;10211376;28;20136;-66
2022/06/04 12:40:24;;;;;;;10.73;5.95;;;;;;;24.36;65.05;102129.91;10220738;28;20529;-65
2022/06/04 12:45:45;;;;;;;12.57;8.75;;;;;;;23.92;61.33;102122.09;10226024;28;20472;-66
2022/06/04 12:50:48;;;;;;;15.38;11.27;;;;;;;24.00;48.76;102121.06;10226811;28;20091;-66
2022/06/04 12:55:55;;;;;;;22.15;15.52;;;;;;;23.71;53.48;102128.94;10214676;28;20053;-65
2022/06/04 13:01:01;;;;;;;4.05;1.70;;;;;;;23.98;59.38;102123.41;10213917;28;20069;-66
2022/06/04 13:06:25;;;;;;;3.80;1.60;;;;;;;24.25;41.00;102117.78;10217854;28;20037;-66
2022/06/04 13:11:41;;;;;;;2.67;1.15;;;;;;;24.35;45.58;102117.16;10226418;28;20076;-66
2022/06/04 13:16:58;;;;;;;3.55;1.60;;;;;;;24.67;66.13;102122.34;10219956;28;20539;-66
2022/06/04 13:21:59;;;;;;;8.75;5.25;;;;;;;24.03;45.42;102117.50;10218040;28;20053;-66
2022/06/04 13:27:11;;;;;;;3.47;1.42;;;;;;;23.56;50.37;102113.16;10221214;28;20046;-66
2022/06/04 13:32:17;;;;;;;2.42;1.15;;;;;;;23.49;66.45;102110.25;10221527;28;20136;-66
2022/06/04 13:37:24;;;;;;;4.70;1.30;;;;;;;23.42;55.31;102110.13;10214759;28;20553;-66
2022/06/04 13:42:35;;;;;;;3.78;1.83;;;;;;;23.36;45.10;102111.59;10222736;28;20123;-66
2022/06/04 13:47:36;;;;;;;3.13;1.50;;;;;;;23.17;48.53;102099.31;10223601;28;20076;-66
2022/06/04 13:52:42;;;;;;;3.47;1.60;;;;;;;23.20;55.69;102098.56;10221435;28;20072;-66
2022/06/04 13:57:44;;;;;;;3.85;2.10;;;;;;;23.35;52.55;102098.81;10225215;28;20081;-66
2022/06/04 14:02:42;;;;;;;18.23;12.60;;;;;;;23.38;49.02;102098.09;10221554;28;20502;-66
2022/06/04 14:07:42;;;;;;;4.72;2.70;;;;;;;23.05;42.33;102091.13;10221831;28;20046;-66
2022/06/04 14:12:54;;;;;;;14.85;10.40;;;;;;;22.99;67.09;102087.03;10211627;28;20087;-66
2022/06/04 14:18:07;;;;;;;18.53;12.97;;;;;;;23.18;71.14;102084.19;10211084;28;20083;-66
2022/06/04 14:23:13;;;;;;;4.55;2.50;;;;;;;24.31;56.11;102083.53;10225462;28;20053;-65
2022/06/04 14:28:21;;;;;;;3.58;1.60;;;;;;;24.74;56.75;102074.88;10221290;28;20071;-66
2022/06/04 14:33:23;;;;;;;3.53;1.50;;;;;;;24.79;56.95;102071.75;10211102;28;20099;-66
2022/06/04 14:38:20;;;;;;;3.38;1.30;;;;;;;24.55;71.32;102073.91;10208643;28;20479;-66
2022/06/04 14:43:35;;;;;;;14.18;7.93;;;;;;;24.36;65.66;102069.22;10206838;28;20073;-66
2022/06/04 14:49:08;;;;;;;24.00;14.13;;;;;;;24.44;44.66;102075.72;10225358;28;20049;-66
2022/06/04 14:54:06;;;;;;;8.13;5.18;;;;;;;24.96;65.26;102079.53;10220111;28;20498;-66
2022/06/04 14:59:40;;;;;;;4.63;1.58;;;;;;;24.75;44.10;102080.09;10223457;28;20115;-66
2022/06/04 15:04:59;;;;;;;4.78;2.08;;;;;;;24.44;68.75;102070.16;10229215;28;20046;-66
2022/06/04 15:10:24;;;;;;;6.38;3.22;;;;;;;24.35;61.93;102067.63;10223434;28;20673;-66
2022/06/04 15:15:31;;;;;;;4.32;1.80;;;;;;;24.36;50.27;102065.63;10229236;28;20084;-66
2022/06/04 15:20:36;;;;;;;3.30;1.60;;;;;;;24.38;47.88;102065.25;10233208;28;20569;-65
2022/06/04 15:25:42;;;;;;;12.15;8.45;;;;;;;24.23;62.02;102058.69;10231386;28;20068;-66
2022/06/04 15:36:43;;;;;;;3.53;1.60;;;;;;;24.43;56.19;102062.13;10215235;28;20041;-65
2022/06/04 15:42:14;;;;;;;4.15;1.80;;;;;;;24.55;46.02;102059.09;10227807;28;20099;-65
2022/06/04 15:47:14;;;;;;;8.90;5.50;;;;;;;24.44;42.03;102052.53;10228927;28;20533;-66
2022/06/04 15:57:44;;;;;;;7.90;5.30;;;;;;;24.57;46.70;102051.94;10218319;28;20509;-65
2022/06/04 16:02:43;;;;;;;7.90;5.65;;;;;;;25.53;41.41;102050.44;10225590;28;20045;-64
2022/06/04 16:07:40;;;;;;;37.47;29.15;;;;;;;26.26;36.25;102049.69;10212292;28;20056;-65
2022/06/04 16:12:47;;;;;;;59.42;43.67;;;;;;;27.48;42.05;102040.31;10216891;28;20041;-65
2022/06/04 16:17:58;;;;;;;8.68;6.32;;;;;;;27.67;35.26;102038.28;10224292;28;20119;-65
2022/06/04 16:23:07;;;;;;;12.43;7.70;;;;;;;27.58;33.53;102035.09;10210653;28;20045;-64
2022/06/04 16:28:17;;;;;;;4.80;2.20;;;;;;;28.08;34.76;102040.59;10205926;28;20072;-64
2022/06/04 16:33:19;;;;;;;15.15;9.38;;;;;;;27.97;35.80;102042.66;10207759;28;20100;-65
2022/06/04 16:38:25;;;;;;;40.97;29.48;;;;;;;27.60;39.21;102038.31;10206480;28;20135;-65
2022/06/04 16:43:22;;;;;;;192.43;142.35;;;;;;;26.92;44.11;102041.91;10206377;28;20049;-65
2022/06/04 16:48:28;;;;;;;46.45;35.42;;;;;;;27.04;49.31;102049.94;10212467;28;20072;-65
2022/06/04 16:53:30;;;;;;;30.70;21.73;;;;;;;27.52;50.23;102047.94;10221887;28;20053;-65
2022/06/04 16:58:27;;;;;;;7.15;4.03;;;;;;;28.19;40.14;102046.97;10222596;28;20128;-65
2022/06/04 17:03:50;;;;;;;4.82;2.08;;;;;;;28.46;45.98;102046.47;10222578;28;20100;-65
2022/06/04 17:09:05;;;;;;;11.40;7.22;;;;;;;27.58;45.02;102046.31;10220776;28;20077;-65
2022/06/04 17:14:32;;;;;;;34.53;25.65;;;;;;;26.71;49.39;102050.25;10228786;28;20068;-65
2022/06/04 17:19:52;;;;;;;9.13;5.75;;;;;;;26.29;56.58;102052.50;10222003;28;20049;-65
2022/06/04 17:25:26;;;;;;;4.50;2.75;;;;;;;25.99;44.41;102055.56;10226894;28;20406;-65
2022/06/04 17:30:39;;;;;;;5.45;2.78;;;;;;;25.72;49.45;102053.00;10217250;28;20084;-65
2022/06/04 17:36:03;;;;;;;9.55;6.40;;;;;;;27.16;43.21;102053.53;10219920;28;20137;-65
2022/06/04 17:41:05;;;;;;;16.42;11.77;;;;;;;28.31;39.38;102054.97;10220427;28;20049;-65
2022/06/04 17:46:02;;;;;;;12.27;8.07;;;;;;;28.87;46.51;102051.44;10222659;28;20122;-65
2022/06/04 17:50:59;;;;;;;7.85;4.60;;;;;;;28.87;43.08;102045.81;10219203;28;20515;-65
2022/06/04 17:55:56;;;;;;;7.05;4.40;;;;;;;28.02;50.60;102057.09;10218549;28;20038;-65
2022/06/04 18:00:52;;;;;;;4.32;3.05;;;;;;;26.99;63.13;102060.72;10224266;28;20049;-64
2022/06/04 18:05:49;;;;;;;5.15;3.00;;;;;;;26.06;58.26;102060.41;10226873;28;20041;-65
2022/06/04 18:10:46;;;;;;;5.15;3.25;;;;;;;25.29;58.46;102069.47;10222098;28;20046;-65
2022/06/04 18:15:48;;;;;;;7.18;3.55;;;;;;;24.57;76.06;102074.31;10222205;28;20048;-64
2022/06/04 18:20:46;;;;;;;5.32;2.92;;;;;;;24.08;81.73;102086.44;10224699;28;20111;-65
2022/06/04 18:25:43;;;;;;;6.85;3.70;;;;;;;23.68;84.52;102073.84;10233423;28;20517;-65
2022/06/04 18:30:42;;;;;;;7.75;3.50;;;;;;;23.30;79.98;102086.81;10227522;28;20448;-65
2022/06/04 18:35:39;;;;;;;6.78;3.42;;;;;;;22.99;84.22;102084.25;10230373;28;20115;-65
2022/06/04 18:40:37;;;;;;;6.43;3.78;;;;;;;22.67;82.49;102093.59;10221746;28;20057;-65
2022/06/04 18:56:05;;;;;;;5.72;3.45;;;;;;;21.79;100.00;102104.34;10225173;28;20064;-65
2022/06/04 19:01:01;;;;;;;6.43;3.70;;;;;;;21.54;99.26;102107.34;10220448;28;20528;-65
2022/06/04 19:05:58;;;;;;;6.90;3.85;;;;;;;21.36;96.00;102119.97;10218792;28;20048;-65
2022/06/04 19:16:16;;;;;;;7.60;4.20;;;;;;;20.86;95.18;102130.53;10221651;28;20073;-66
2022/06/04 19:26:29;;;;;;;9.93;4.18;;;;;;;20.50;96.97;102128.69;10221091;28;20091;-64
2022/06/04 19:31:26;;;;;;;8.32;4.50;;;;;;;20.38;98.38;102132.28;10217111;28;20041;-66
2022/06/04 19:36:23;;;;;;;5.38;3.78;;;;;;;20.15;99.71;102129.22;10231677;28;20100;-66
2022/06/04 19:41:19;;;;;;;10.07;4.50;;;;;;;20.01;100.00;102134.31;10222766;28;20765;-65
2022/06/04 19:46:16;;;;;;;6.13;4.10;;;;;;;19.88;100.00;102142.63;10224534;28;20037;-65
2022/06/04 19:51:12;;;;;;;6.35;4.43;;;;;;;19.72;100.00;102150.03;10222785;28;20049;-65
2022/06/04 19:56:12;;;;;;;6.38;4.00;;;;;;;19.55;100.00;102151.03;10220474;28;20072;-65
2022/06/04 20:01:10;;;;;;;6.95;4.85;;;;;;;19.45;100.00;102152.28;10220224;28;20041;-65
2022/06/04 20:06:11;;;;;;;9.32;4.78;;;;;;;19.30;100.00;102155.72;10232403;28;20505;-65
2022/06/04 20:11:12;;;;;;;8.02;4.80;;;;;;;19.12;100.00;102161.44;10227373;28;20509;-65
2022/06/04 20:16:10;;;;;;;6.07;4.40;;;;;;;18.98;100.00;102160.09;10221603;28;20045;-65
2022/06/04 20:21:09;;;;;;;8.07;4.53;;;;;;;18.86;100.00;102160.88;10221497;28;21015;-66
2022/06/04 20:26:11;;;;;;;7.25;4.20;;;;;;;18.68;100.00;102147.13;10226120;28;20550;-65
2022/06/04 20:31:09;;;;;;;9.32;4.75;;;;;;;18.56;100.00;102160.09;10210495;28;20123;-65
2022/06/04 20:36:08;;;;;;;8.55;4.35;;;;;;;18.45;100.00;102160.50;10219782;28;20556;-65
2022/06/04 20:41:07;;;;;;;8.85;4.20;;;;;;;18.27;100.00;102165.34;10223844;28;20065;-65
2022/06/04 20:46:06;;;;;;;5.57;4.00;;;;;;;18.17;100.00;102160.22;10221483;28;20046;-65
2022/06/04 20:51:05;;;;;;;6.07;3.90;;;;;;;18.07;100.00;102160.56;10215239;28;20049;-65
2022/06/04 20:56:08;;;;;;;7.50;4.10;;;;;;;17.99;100.00;102158.69;10222360;28;20596;-65
2022/06/04 21:01:06;;;;;;;9.90;4.85;;;;;;;17.87;100.00;102162.97;10221737;28;20050;-65
2022/06/04 21:06:02;;;;;;;9.20;5.10;;;;;;;17.75;100.00;102165.56;10214432;28;20085;-65
2022/06/04 21:10:59;;;;;;;8.40;4.68;;;;;;;17.66;100.00;102162.03;10216617;28;20044;-65
2022/06/04 21:15:55;;;;;;;7.68;4.40;;;;;;;17.54;100.00;102164.69;10215436;28;20054;-65
2022/06/04 21:20:52;;;;;;;8.60;5.13;;;;;;;17.41;100.00;102164.56;10230042;28;20045;-65
2022/06/04 21:25:49;;;;;;;9.00;5.18;;;;;;;17.30;100.00;102171.56;10224114;28;20045;-65
2022/06/04 21:30:45;;;;;;;11.05;5.35;;;;;;;17.19;100.00;102167.53;10217766;28;20132;-65
2022/06/04 21:40:57;;;;;;;10.25;5.85;;;;;;;16.98;100.00;102157.16;10207641;28;20527;-65
2022/06/04 21:45:54;;;;;;;10.02;6.30;;;;;;;16.86;100.00;102148.72;10217926;28;20092;-65
2022/06/04 21:50:51;;;;;;;9.00;6.32;;;;;;;16.76;100.00;102157.31;10216997;28;20561;-65
2022/06/04 21:55:47;;;;;;;11.65;6.75;;;;;;;16.67;100.00;102167.53;10215591;28;20045;-64
2022/06/04 22:00:44;;;;;;;11.40;6.88;;;;;;;16.54;100.00;102156.31;10214551;28;20096;-65
2022/06/04 22:05:40;;;;;;;9.82;7.00;;;;;;;16.42;100.00;102150.63;10220594;28;20424;-65
2022/06/04 22:10:37;;;;;;;12.25;7.15;;;;;;;16.30;100.00;102151.25;10225065;28;20045;-65
2022/06/04 22:15:33;;;;;;;10.32;7.05;;;;;;;16.20;100.00;102168.94;10220350;28;20049;-64
2022/06/04 22:20:30;;;;;;;10.82;6.65;;;;;;;16.14;100.00;102164.69;10219483;28;20536;-65
2022/06/04 22:25:27;;;;;;;9.20;6.45;;;;;;;16.05;100.00;102165.78;10219020;28;20052;-65
2022/06/04 22:30:23;;;;;;;11.23;6.50;;;;;;;15.94;100.00;102151.47;10214755;28;20041;-64
2022/06/04 22:35:20;;;;;;;11.13;6.53;;;;;;;15.84;100.00;102165.56;10223534;28;20041;-65
2022/06/04 22:40:17;;;;;;;9.35;5.63;;;;;;;15.75;100.00;102160.81;10222927;28;20068;-65
2022/06/04 22:45:14;;;;;;;9.40;6.10;;;;;;;15.66;100.00;102148.88;10219437;28;20081;-64
2022/06/04 22:50:11;;;;;;;9.70;5.95;;;;;;;15.56;100.00;102154.69;10220175;28;20129;-64
2022/06/04 22:55:07;;;;;;;9.07;6.22;;;;;;;15.48;100.00;102159.03;10220876;28;20045;-65
2022/06/04 23:00:05;;;;;;;10.20;6.68;;;;;;;15.38;100.00;102148.28;10224417;28;20077;-65
2022/06/04 23:05:02;;;;;;;9.57;6.63;;;;;;;15.27;100.00;102158.75;10217354;28;20088;-65
2022/06/04 23:20:47;;;;;;;9.65;6.90;;;;;;;14.93;100.00;102153.81;10228731;28;20069;-64
2022/06/04 23:25:45;;;;;;;9.48;7.03;;;;;;;14.83;100.00;102160.38;10233827;28;20058;-64
2022/06/04 23:30:41;;;;;;;10.35;7.25;;;;;;;14.73;100.00;102155.09;10225777;28;20042;-65
2022/06/04 23:35:38;;;;;;;10.27;7.10;;;;;;;14.69;100.00;102152.19;10220741;28;20117;-64
2022/06/04 23:40:35;;;;;;;9.75;7.40;;;;;;;14.59;100.00;102143.31;10222016;28;20053;-66
2022/06/04 23:45:34;;;;;;;9.57;7.18;;;;;;;14.47;100.00;102158.41;10227371;28;20419;-66
2022/06/04 23:50:35;;;;;;;10.38;6.72;;;;;;;14.38;100.00;102165.75;10225701;28;20406;-66
2022/06/04 23:55:31;;;;;;;13.13;7.43;;;;;;;14.33;100.00;102163.13;10228982;28;20467;-65
